N624ML SCTO-SCPQ
Flight info
| Callsign | N624ML |
|---|---|
| Flight time | 1h 18m |
| Altitude | 21000 |
| Route | SAGAZ KETIR V551 MON T121 ANPIP |
| Aircraft | PC12/L-G/C |
Departure
| Time | 2026-05-03 23:37 |
|---|---|
| Airport | Victoria Airport (SCTO) |
Arrival
| Time | 2026-05-04 00:55 |
|---|---|
| Airport | Mocopulli Airport (SCPQ) |
| Time | Latitude | Longitude | Altitude | Speed | Heading |
|---|---|---|---|---|---|
| 2026-05-03 23:16 | -38.24641 | -72.34739 | 1161 ft | 0 kts | 281° |
| 2026-05-03 23:25 | -38.24641 | -72.34740 | 1161 ft | 0 kts | 280° |
| 2026-05-03 23:25 | -38.24641 | -72.34744 | 1161 ft | 2 kts | 269° |
| 2026-05-03 23:25 | -38.24659 | -72.34767 | 1160 ft | 4 kts | 191° |
| 2026-05-03 23:25 | -38.24692 | -72.34776 | 1159 ft | 4 kts | 190° |
| 2026-05-03 23:26 | -38.24728 | -72.34784 | 1158 ft | 5 kts | 189° |
| 2026-05-03 23:26 | -38.24764 | -72.34810 | 1157 ft | 6 kts | 253° |
| 2026-05-03 23:26 | -38.24759 | -72.34862 | 1156 ft | 5 kts | 282° |
| 2026-05-03 23:26 | -38.24749 | -72.34902 | 1156 ft | 3 kts | 315° |
| 2026-05-03 23:27 | -38.24733 | -72.34910 | 1156 ft | 1 kts | 1° |
| 2026-05-03 23:27 | -38.24724 | -72.34909 | 1156 ft | 0 kts | 7° |
| 2026-05-03 23:27 | -38.24720 | -72.34908 | 1156 ft | 0 kts | 9° |
| 2026-05-03 23:28 | -38.24916 | -72.34968 | 1150 ft | 0 kts | 13° |
| 2026-05-03 23:30 | -38.24759 | -72.34828 | 1157 ft | 0 kts | 13° |
| 2026-05-03 23:30 | -38.24771 | -72.34776 | 1158 ft | 0 kts | 13° |
| 2026-05-03 23:31 | -38.24771 | -72.34777 | 1158 ft | 0 kts | 280° |
| 2026-05-03 23:35 | -38.24762 | -72.34855 | 1156 ft | 7 kts | 282° |
| 2026-05-03 23:36 | -38.24739 | -72.34911 | 1156 ft | 8 kts | 343° |
| 2026-05-03 23:36 | -38.24724 | -72.34911 | 1156 ft | 0 kts | 10° |
| 2026-05-03 23:36 | -38.24512 | -72.34849 | 1162 ft | 76 kts | 14° |
| 2026-05-03 23:36 | -38.23833 | -72.34686 | 1355 ft | 112 kts | 9° |
| 2026-05-03 23:37 | -38.23009 | -72.34482 | 1763 ft | 129 kts | 13° |
| 2026-05-03 23:37 | -38.22064 | -72.34182 | 2124 ft | 150 kts | 12° |
| 2026-05-03 23:37 | -38.20994 | -72.33860 | 2536 ft | 165 kts | 10° |
| 2026-05-03 23:37 | -38.19837 | -72.33540 | 2907 ft | 174 kts | 4° |
| 2026-05-03 23:38 | -38.18743 | -72.34118 | 3334 ft | 180 kts | 313° |
| 2026-05-03 23:38 | -38.18347 | -72.35617 | 3757 ft | 193 kts | 268° |
| 2026-05-03 23:38 | -38.18904 | -72.37186 | 4165 ft | 202 kts | 237° |
| 2026-05-03 23:38 | -38.19813 | -72.38552 | 4553 ft | 205 kts | 230° |
| 2026-05-03 23:39 | -38.20811 | -72.39876 | 4920 ft | 206 kts | 229° |
| 2026-05-03 23:39 | -38.21810 | -72.41167 | 5300 ft | 206 kts | 230° |
| 2026-05-03 23:39 | -38.22819 | -72.42465 | 5682 ft | 205 kts | 230° |
| 2026-05-03 23:39 | -38.23816 | -72.43746 | 6061 ft | 203 kts | 230° |
| 2026-05-03 23:40 | -38.24796 | -72.45007 | 6442 ft | 203 kts | 230° |
| 2026-05-03 23:40 | -38.26022 | -72.45926 | 6822 ft | 210 kts | 206° |
| 2026-05-03 23:40 | -38.27441 | -72.46433 | 7197 ft | 211 kts | 200° |
| 2026-05-03 23:40 | -38.28856 | -72.46844 | 7567 ft | 211 kts | 199° |
| 2026-05-03 23:41 | -38.30285 | -72.47240 | 7946 ft | 210 kts | 199° |
| 2026-05-03 23:41 | -38.31716 | -72.47640 | 8319 ft | 209 kts | 200° |
| 2026-05-03 23:41 | -38.33123 | -72.48040 | 8678 ft | 207 kts | 200° |
| 2026-05-03 23:41 | -38.34522 | -72.48434 | 9041 ft | 206 kts | 200° |
| 2026-05-03 23:42 | -38.35925 | -72.48827 | 9404 ft | 205 kts | 200° |
| 2026-05-03 23:42 | -38.37302 | -72.49217 | 9772 ft | 204 kts | 201° |
| 2026-05-03 23:42 | -38.38674 | -72.49603 | 10140 ft | 202 kts | 202° |
| 2026-05-03 23:42 | -38.40036 | -72.49986 | 10505 ft | 200 kts | 202° |
| 2026-05-03 23:43 | -38.41392 | -72.50372 | 10870 ft | 199 kts | 202° |
| 2026-05-03 23:43 | -38.42745 | -72.50751 | 11238 ft | 197 kts | 202° |
| 2026-05-03 23:43 | -38.44069 | -72.51129 | 11599 ft | 196 kts | 203° |
| 2026-05-03 23:43 | -38.45382 | -72.51498 | 11955 ft | 194 kts | 203° |
| 2026-05-03 23:44 | -38.46691 | -72.51867 | 12321 ft | 192 kts | 204° |
| 2026-05-03 23:44 | -38.47998 | -72.52238 | 12688 ft | 190 kts | 204° |
| 2026-05-03 23:44 | -38.49275 | -72.52602 | 13044 ft | 188 kts | 205° |
| 2026-05-03 23:44 | -38.50548 | -72.52963 | 13307 ft | 191 kts | 204° |
| 2026-05-03 23:45 | -38.51875 | -72.53340 | 13554 ft | 198 kts | 204° |
| 2026-05-03 23:45 | -38.53239 | -72.53728 | 13790 ft | 204 kts | 204° |
| 2026-05-03 23:45 | -38.54642 | -72.54125 | 14038 ft | 208 kts | 203° |
| 2026-05-03 23:45 | -38.56065 | -72.54530 | 14284 ft | 211 kts | 204° |
| 2026-05-03 23:46 | -38.57500 | -72.54939 | 14526 ft | 213 kts | 203° |
| 2026-05-03 23:46 | -38.58971 | -72.55352 | 14768 ft | 214 kts | 204° |
| 2026-05-03 23:46 | -38.60424 | -72.55765 | 15007 ft | 215 kts | 204° |
| 2026-05-03 23:46 | -38.61873 | -72.56175 | 15235 ft | 215 kts | 204° |
| 2026-05-03 23:47 | -38.63342 | -72.56593 | 15477 ft | 215 kts | 204° |
| 2026-05-03 23:47 | -38.64787 | -72.57004 | 15714 ft | 214 kts | 204° |
| 2026-05-03 23:47 | -38.66242 | -72.57418 | 15951 ft | 214 kts | 204° |
| 2026-05-03 23:47 | -38.67690 | -72.57830 | 16187 ft | 213 kts | 204° |
| 2026-05-03 23:48 | -38.69139 | -72.58242 | 16446 ft | 212 kts | 205° |
| 2026-05-03 23:48 | -38.70576 | -72.58649 | 16677 ft | 210 kts | 205° |
| 2026-05-03 23:48 | -38.71997 | -72.59050 | 16892 ft | 208 kts | 205° |
| 2026-05-03 23:48 | -38.73387 | -72.59447 | 17148 ft | 205 kts | 205° |
| 2026-05-03 23:49 | -38.74780 | -72.59842 | 17378 ft | 201 kts | 206° |
| 2026-05-03 23:49 | -38.76128 | -72.60225 | 17618 ft | 198 kts | 205° |
| 2026-05-03 23:49 | -38.77462 | -72.60608 | 17855 ft | 194 kts | 207° |
| 2026-05-03 23:49 | -38.78762 | -72.60976 | 18083 ft | 191 kts | 207° |
| 2026-05-03 23:50 | -38.80059 | -72.61346 | 18329 ft | 188 kts | 206° |
| 2026-05-03 23:50 | -38.80889 | -72.61584 | 18492 ft | 186 kts | 207° |
| 2026-05-03 23:50 | -38.82560 | -72.62061 | 18783 ft | 181 kts | 208° |
| 2026-05-03 23:50 | -38.83796 | -72.62408 | 19001 ft | 179 kts | 208° |
| 2026-05-03 23:51 | -38.84982 | -72.62756 | 19251 ft | 176 kts | 209° |
| 2026-05-03 23:51 | -38.86170 | -72.63092 | 19491 ft | 173 kts | 208° |
| 2026-05-03 23:51 | -38.87348 | -72.63426 | 19715 ft | 171 kts | 209° |
| 2026-05-03 23:51 | -38.88496 | -72.63754 | 19938 ft | 169 kts | 211° |
| 2026-05-03 23:52 | -38.89632 | -72.64082 | 20153 ft | 167 kts | 211° |
| 2026-05-03 23:52 | -38.90747 | -72.64454 | 20375 ft | 154 kts | 221° |
| 2026-05-03 23:52 | -38.91776 | -72.64886 | 20618 ft | 167 kts | 206° |
| 2026-05-03 23:52 | -38.92946 | -72.65008 | 20844 ft | 168 kts | 204° |
| 2026-05-03 23:53 | -38.94115 | -72.65137 | 21021 ft | 169 kts | 206° |
| 2026-05-03 23:53 | -38.95303 | -72.65314 | 21052 ft | 179 kts | 206° |
| 2026-05-03 23:53 | -38.96572 | -72.65518 | 21050 ft | 189 kts | 205° |
| 2026-05-03 23:53 | -38.97920 | -72.65741 | 21043 ft | 198 kts | 205° |
| 2026-05-03 23:54 | -38.99305 | -72.65974 | 21041 ft | 204 kts | 205° |
| 2026-05-03 23:54 | -39.00722 | -72.66218 | 21048 ft | 209 kts | 203° |
| 2026-05-03 23:54 | -39.02200 | -72.66477 | 21038 ft | 213 kts | 204° |
| 2026-05-03 23:54 | -39.03671 | -72.66736 | 21045 ft | 217 kts | 203° |
| 2026-05-03 23:55 | -39.05181 | -72.66999 | 21037 ft | 220 kts | 204° |
| 2026-05-03 23:55 | -39.06708 | -72.67271 | 21041 ft | 223 kts | 203° |
| 2026-05-03 23:55 | -39.08266 | -72.67549 | 21040 ft | 224 kts | 202° |
| 2026-05-03 23:55 | -39.09801 | -72.67821 | 21036 ft | 225 kts | 204° |
| 2026-05-03 23:56 | -39.11360 | -72.68105 | 21025 ft | 227 kts | 204° |
| 2026-05-03 23:56 | -39.12921 | -72.68385 | 21024 ft | 227 kts | 203° |
| 2026-05-03 23:56 | -39.14501 | -72.68665 | 21025 ft | 228 kts | 203° |
| 2026-05-03 23:56 | -39.16076 | -72.68952 | 21030 ft | 228 kts | 203° |
| 2026-05-03 23:57 | -39.17647 | -72.69234 | 21029 ft | 229 kts | 203° |
| 2026-05-03 23:57 | -39.19228 | -72.69515 | 21038 ft | 230 kts | 204° |
| 2026-05-03 23:57 | -39.20810 | -72.69802 | 21025 ft | 231 kts | 204° |
| 2026-05-03 23:57 | -39.22412 | -72.70095 | 21021 ft | 232 kts | 203° |
| 2026-05-03 23:58 | -39.24007 | -72.70380 | 21029 ft | 232 kts | 203° |
| 2026-05-03 23:58 | -39.25615 | -72.70669 | 21021 ft | 231 kts | 202° |
| 2026-05-03 23:58 | -39.27202 | -72.70957 | 21027 ft | 232 kts | 203° |
| 2026-05-03 23:58 | -39.28793 | -72.71249 | 21017 ft | 233 kts | 202° |
| 2026-05-03 23:59 | -39.30407 | -72.71536 | 21012 ft | 234 kts | 203° |
| 2026-05-03 23:59 | -39.32040 | -72.71833 | 21014 ft | 234 kts | 202° |
| 2026-05-03 23:59 | -39.33641 | -72.72121 | 21011 ft | 235 kts | 202° |
| 2026-05-03 23:59 | -39.35257 | -72.72416 | 21012 ft | 235 kts | 202° |
| 2026-05-04 00:00 | -39.36874 | -72.72706 | 21017 ft | 235 kts | 202° |
| 2026-05-04 00:00 | -39.38487 | -72.72997 | 21018 ft | 235 kts | 202° |
| 2026-05-04 00:00 | -39.40110 | -72.73341 | 21019 ft | 232 kts | 206° |
| 2026-05-04 00:00 | -39.41719 | -72.73679 | 21023 ft | 237 kts | 201° |
| 2026-05-04 00:01 | -39.43351 | -72.73933 | 21023 ft | 238 kts | 201° |
| 2026-05-04 00:01 | -39.44987 | -72.74191 | 21023 ft | 239 kts | 201° |
| 2026-05-04 00:01 | -39.46638 | -72.74468 | 21020 ft | 238 kts | 202° |
| 2026-05-04 00:01 | -39.48297 | -72.74772 | 21019 ft | 239 kts | 202° |
| 2026-05-04 00:02 | -39.49930 | -72.75072 | 21017 ft | 239 kts | 202° |
| 2026-05-04 00:02 | -39.51589 | -72.75371 | 21020 ft | 239 kts | 202° |
| 2026-05-04 00:02 | -39.53244 | -72.75670 | 21022 ft | 239 kts | 202° |
| 2026-05-04 00:02 | -39.54893 | -72.75973 | 21026 ft | 239 kts | 202° |
| 2026-05-04 00:03 | -39.56547 | -72.76271 | 21031 ft | 239 kts | 202° |
| 2026-05-04 00:03 | -39.58189 | -72.76569 | 21037 ft | 238 kts | 202° |
| 2026-05-04 00:03 | -39.59833 | -72.76870 | 21035 ft | 239 kts | 202° |
| 2026-05-04 00:03 | -39.61454 | -72.77168 | 21030 ft | 238 kts | 202° |
| 2026-05-04 00:04 | -39.63099 | -72.77464 | 21034 ft | 238 kts | 202° |
| 2026-05-04 00:04 | -39.64749 | -72.77763 | 21031 ft | 238 kts | 202° |
| 2026-05-04 00:04 | -39.66396 | -72.78064 | 21033 ft | 238 kts | 202° |
| 2026-05-04 00:04 | -39.68021 | -72.78363 | 21029 ft | 239 kts | 202° |
| 2026-05-04 00:05 | -39.69686 | -72.78665 | 21031 ft | 238 kts | 202° |
| 2026-05-04 00:05 | -39.71316 | -72.78977 | 21029 ft | 234 kts | 206° |
| 2026-05-04 00:05 | -39.72831 | -72.79588 | 21039 ft | 238 kts | 202° |
| 2026-05-04 00:05 | -39.74506 | -72.79735 | 21037 ft | 243 kts | 198° |
| 2026-05-04 00:06 | -39.76191 | -72.79890 | 21029 ft | 242 kts | 199° |
| 2026-05-04 00:06 | -39.77863 | -72.80092 | 21024 ft | 241 kts | 200° |
| 2026-05-04 00:06 | -39.79537 | -72.80327 | 21020 ft | 241 kts | 201° |
| 2026-05-04 00:06 | -39.81204 | -72.80577 | 21023 ft | 241 kts | 201° |
| 2026-05-04 00:07 | -39.82864 | -72.80837 | 21019 ft | 241 kts | 201° |
| 2026-05-04 00:07 | -39.84535 | -72.81100 | 21020 ft | 241 kts | 201° |
| 2026-05-04 00:07 | -39.86194 | -72.81370 | 21014 ft | 241 kts | 201° |
| 2026-05-04 00:07 | -39.87864 | -72.81641 | 21008 ft | 242 kts | 201° |
| 2026-05-04 00:08 | -39.89519 | -72.81907 | 21008 ft | 242 kts | 201° |
| 2026-05-04 00:08 | -39.91190 | -72.82175 | 21002 ft | 242 kts | 201° |
| 2026-05-04 00:08 | -39.92876 | -72.82450 | 21001 ft | 242 kts | 201° |
| 2026-05-04 00:08 | -39.94546 | -72.82719 | 20998 ft | 241 kts | 201° |
| 2026-05-04 00:09 | -39.96202 | -72.82988 | 21000 ft | 240 kts | 201° |
| 2026-05-04 00:09 | -39.97866 | -72.83257 | 21003 ft | 240 kts | 201° |
| 2026-05-04 00:09 | -39.99511 | -72.83526 | 21006 ft | 241 kts | 201° |
| 2026-05-04 00:09 | -40.01188 | -72.83800 | 21002 ft | 241 kts | 201° |
| 2026-05-04 00:10 | -40.02834 | -72.84069 | 21001 ft | 241 kts | 201° |
| 2026-05-04 00:10 | -40.04512 | -72.84339 | 21005 ft | 241 kts | 201° |
| 2026-05-04 00:10 | -40.06171 | -72.84609 | 21005 ft | 242 kts | 201° |
| 2026-05-04 00:10 | -40.07837 | -72.84884 | 21002 ft | 241 kts | 201° |
| 2026-05-04 00:11 | -40.09519 | -72.85156 | 21001 ft | 241 kts | 201° |
| 2026-05-04 00:11 | -40.11165 | -72.85422 | 21005 ft | 241 kts | 201° |
| 2026-05-04 00:11 | -40.12835 | -72.85698 | 20999 ft | 241 kts | 201° |
| 2026-05-04 00:11 | -40.14509 | -72.85970 | 20998 ft | 241 kts | 201° |
| 2026-05-04 00:12 | -40.16166 | -72.86241 | 20999 ft | 241 kts | 201° |
| 2026-05-04 00:12 | -40.17843 | -72.86515 | 21002 ft | 241 kts | 201° |
| 2026-05-04 00:12 | -40.19513 | -72.86784 | 20999 ft | 241 kts | 201° |
| 2026-05-04 00:12 | -40.21160 | -72.87055 | 20995 ft | 241 kts | 201° |
| 2026-05-04 00:13 | -40.22831 | -72.87328 | 21001 ft | 240 kts | 201° |
| 2026-05-04 00:13 | -40.24483 | -72.87599 | 21000 ft | 240 kts | 201° |
| 2026-05-04 00:13 | -40.26154 | -72.87872 | 21000 ft | 240 kts | 201° |
| 2026-05-04 00:13 | -40.27813 | -72.88144 | 20996 ft | 240 kts | 201° |
| 2026-05-04 00:14 | -40.29470 | -72.88416 | 20991 ft | 240 kts | 201° |
| 2026-05-04 00:14 | -40.31110 | -72.88683 | 20999 ft | 240 kts | 201° |
| 2026-05-04 00:14 | -40.32782 | -72.88959 | 21004 ft | 241 kts | 201° |
| 2026-05-04 00:14 | -40.34479 | -72.89085 | 20997 ft | 259 kts | 185° |
| 2026-05-04 00:15 | -40.36251 | -72.88566 | 20981 ft | 247 kts | 194° |
| 2026-05-04 00:15 | -40.37805 | -72.89038 | 20995 ft | 228 kts | 211° |
| 2026-05-04 00:15 | -40.39355 | -72.89617 | 20994 ft | 231 kts | 208° |
| 2026-05-04 00:15 | -40.40920 | -72.90071 | 20997 ft | 234 kts | 205° |
| 2026-05-04 00:16 | -40.42536 | -72.90448 | 20995 ft | 237 kts | 203° |
| 2026-05-04 00:16 | -40.44183 | -72.90776 | 20987 ft | 237 kts | 202° |
| 2026-05-04 00:16 | -40.45803 | -72.91071 | 20991 ft | 238 kts | 202° |
| 2026-05-04 00:16 | -40.47453 | -72.91357 | 20992 ft | 238 kts | 202° |
| 2026-05-04 00:17 | -40.49107 | -72.91639 | 20997 ft | 238 kts | 201° |
| 2026-05-04 00:17 | -40.50754 | -72.91914 | 20989 ft | 239 kts | 201° |
| 2026-05-04 00:17 | -40.52405 | -72.92187 | 20986 ft | 240 kts | 201° |
| 2026-05-04 00:17 | -40.54043 | -72.92456 | 20985 ft | 239 kts | 201° |
| 2026-05-04 00:18 | -40.55694 | -72.92729 | 20993 ft | 239 kts | 201° |
| 2026-05-04 00:18 | -40.57359 | -72.93008 | 20989 ft | 239 kts | 201° |
| 2026-05-04 00:18 | -40.58998 | -72.93278 | 20988 ft | 239 kts | 201° |
| 2026-05-04 00:18 | -40.60643 | -72.93549 | 20990 ft | 239 kts | 201° |
| 2026-05-04 00:19 | -40.62298 | -72.93825 | 20986 ft | 239 kts | 201° |
| 2026-05-04 00:19 | -40.63942 | -72.94096 | 20996 ft | 239 kts | 201° |
| 2026-05-04 00:19 | -40.65596 | -72.94370 | 20991 ft | 240 kts | 201° |
| 2026-05-04 00:19 | -40.67258 | -72.94646 | 20993 ft | 240 kts | 201° |
| 2026-05-04 00:20 | -40.68913 | -72.94920 | 20990 ft | 239 kts | 201° |
| 2026-05-04 00:20 | -40.70555 | -72.95191 | 20986 ft | 239 kts | 201° |
| 2026-05-04 00:20 | -40.72208 | -72.95466 | 20988 ft | 239 kts | 201° |
| 2026-05-04 00:20 | -40.73870 | -72.95740 | 20989 ft | 239 kts | 201° |
| 2026-05-04 00:21 | -40.75520 | -72.96015 | 20988 ft | 240 kts | 201° |
| 2026-05-04 00:21 | -40.77182 | -72.96292 | 20989 ft | 240 kts | 201° |
| 2026-05-04 00:21 | -40.78830 | -72.96565 | 20987 ft | 239 kts | 201° |
| 2026-05-04 00:21 | -40.80490 | -72.96843 | 20989 ft | 240 kts | 201° |
| 2026-05-04 00:22 | -40.82130 | -72.97115 | 20984 ft | 240 kts | 201° |
| 2026-05-04 00:22 | -40.83790 | -72.97392 | 20980 ft | 240 kts | 201° |
| 2026-05-04 00:22 | -40.85436 | -72.97665 | 20986 ft | 239 kts | 201° |
| 2026-05-04 00:22 | -40.87107 | -72.97944 | 20989 ft | 240 kts | 201° |
| 2026-05-04 00:23 | -40.88753 | -72.98221 | 20980 ft | 240 kts | 201° |
| 2026-05-04 00:23 | -40.90396 | -72.98495 | 20982 ft | 240 kts | 201° |
| 2026-05-04 00:23 | -40.92052 | -72.98770 | 20980 ft | 240 kts | 201° |
| 2026-05-04 00:23 | -40.93771 | -72.99057 | 20974 ft | 240 kts | 201° |
| 2026-05-04 00:24 | -40.95493 | -72.99344 | 20982 ft | 240 kts | 201° |
| 2026-05-04 00:24 | -40.97176 | -72.99628 | 20982 ft | 239 kts | 201° |
| 2026-05-04 00:24 | -40.98830 | -72.99903 | 20980 ft | 239 kts | 201° |
| 2026-05-04 00:24 | -41.00486 | -73.00181 | 20977 ft | 239 kts | 201° |
| 2026-05-04 00:25 | -41.02129 | -73.00454 | 20979 ft | 239 kts | 201° |
| 2026-05-04 00:25 | -41.03782 | -73.00733 | 20975 ft | 239 kts | 201° |
| 2026-05-04 00:25 | -41.05316 | -73.01298 | 20983 ft | 225 kts | 213° |
| 2026-05-04 00:25 | -41.06815 | -73.01945 | 20976 ft | 229 kts | 210° |
| 2026-05-04 00:26 | -41.08384 | -73.02463 | 20976 ft | 233 kts | 207° |
| 2026-05-04 00:26 | -41.09980 | -73.02855 | 20973 ft | 241 kts | 199° |
| 2026-05-04 00:26 | -41.11743 | -73.02445 | 20979 ft | 259 kts | 183° |
| 2026-05-04 00:26 | -41.13354 | -73.02696 | 20975 ft | 224 kts | 212° |
| 2026-05-04 00:27 | -41.14821 | -73.03346 | 20975 ft | 227 kts | 211° |
| 2026-05-04 00:27 | -41.16360 | -73.03895 | 20974 ft | 231 kts | 207° |
| 2026-05-04 00:27 | -41.17956 | -73.04343 | 20971 ft | 234 kts | 205° |
| 2026-05-04 00:27 | -41.19567 | -73.04723 | 20971 ft | 236 kts | 204° |
| 2026-05-04 00:28 | -41.21185 | -73.05067 | 20968 ft | 236 kts | 203° |
| 2026-05-04 00:28 | -41.22798 | -73.05391 | 20966 ft | 236 kts | 203° |
| 2026-05-04 00:28 | -41.24377 | -73.05698 | 20973 ft | 237 kts | 202° |
| 2026-05-04 00:28 | -41.26009 | -73.06007 | 20973 ft | 237 kts | 202° |
| 2026-05-04 00:29 | -41.27644 | -73.06317 | 20971 ft | 237 kts | 203° |
| 2026-05-04 00:29 | -41.29292 | -73.06630 | 20967 ft | 237 kts | 203° |
| 2026-05-04 00:29 | -41.30922 | -73.06934 | 20964 ft | 238 kts | 202° |
| 2026-05-04 00:29 | -41.32549 | -73.07243 | 20960 ft | 238 kts | 202° |
| 2026-05-04 00:30 | -41.34189 | -73.07550 | 20955 ft | 237 kts | 202° |
| 2026-05-04 00:30 | -41.35829 | -73.07858 | 20953 ft | 237 kts | 202° |
| 2026-05-04 00:30 | -41.37444 | -73.08161 | 20952 ft | 237 kts | 202° |
| 2026-05-04 00:30 | -41.39097 | -73.08473 | 20951 ft | 237 kts | 203° |
| 2026-05-04 00:31 | -41.40733 | -73.08782 | 20858 ft | 241 kts | 203° |
| 2026-05-04 00:31 | -41.42426 | -73.09108 | 20613 ft | 249 kts | 202° |
| 2026-05-04 00:31 | -41.43981 | -73.09856 | 20355 ft | 237 kts | 218° |
| 2026-05-04 00:31 | -41.45465 | -73.10854 | 20107 ft | 241 kts | 219° |
| 2026-05-04 00:32 | -41.46954 | -73.11876 | 19861 ft | 244 kts | 218° |
| 2026-05-04 00:32 | -41.48475 | -73.12908 | 19612 ft | 247 kts | 218° |
| 2026-05-04 00:32 | -41.50018 | -73.13952 | 19363 ft | 249 kts | 217° |
| 2026-05-04 00:32 | -41.51564 | -73.14993 | 19112 ft | 250 kts | 217° |
| 2026-05-04 00:33 | -41.53123 | -73.16042 | 18862 ft | 251 kts | 217° |
| 2026-05-04 00:33 | -41.56247 | -73.18142 | 18372 ft | 252 kts | 217° |
| 2026-05-04 00:33 | -41.57795 | -73.19181 | 18135 ft | 253 kts | 217° |
| 2026-05-04 00:34 | -41.59365 | -73.20240 | 17886 ft | 253 kts | 217° |
| 2026-05-04 00:34 | -41.60935 | -73.21300 | 17637 ft | 254 kts | 216° |
| 2026-05-04 00:34 | -41.62515 | -73.22363 | 17386 ft | 254 kts | 216° |
| 2026-05-04 00:34 | -41.64099 | -73.23433 | 17130 ft | 255 kts | 216° |
| 2026-05-04 00:35 | -41.65676 | -73.24500 | 16874 ft | 256 kts | 216° |
| 2026-05-04 00:35 | -41.67266 | -73.25571 | 16623 ft | 256 kts | 216° |
| 2026-05-04 00:35 | -41.68871 | -73.26657 | 16367 ft | 256 kts | 216° |
| 2026-05-04 00:35 | -41.70445 | -73.27722 | 16117 ft | 257 kts | 216° |
| 2026-05-04 00:36 | -41.72044 | -73.28803 | 15860 ft | 257 kts | 216° |
| 2026-05-04 00:36 | -41.73693 | -73.29920 | 15595 ft | 257 kts | 216° |
| 2026-05-04 00:36 | -41.75290 | -73.31004 | 15347 ft | 257 kts | 215° |
| 2026-05-04 00:36 | -41.76886 | -73.32082 | 15096 ft | 258 kts | 215° |
| 2026-05-04 00:37 | -41.78502 | -73.33178 | 14838 ft | 258 kts | 215° |
| 2026-05-04 00:37 | -41.80089 | -73.34254 | 14586 ft | 256 kts | 215° |
| 2026-05-04 00:37 | -41.81658 | -73.35320 | 14330 ft | 252 kts | 215° |
| 2026-05-04 00:37 | -41.83213 | -73.36374 | 14073 ft | 250 kts | 215° |
| 2026-05-04 00:38 | -41.84769 | -73.37434 | 13816 ft | 248 kts | 215° |
| 2026-05-04 00:38 | -41.86306 | -73.38478 | 13530 ft | 249 kts | 215° |
| 2026-05-04 00:38 | -41.87853 | -73.39532 | 13234 ft | 251 kts | 214° |
| 2026-05-04 00:38 | -41.89415 | -73.40597 | 12930 ft | 253 kts | 214° |
| 2026-05-04 00:39 | -41.90991 | -73.41670 | 12625 ft | 254 kts | 214° |
| 2026-05-04 00:39 | -41.92568 | -73.42745 | 12299 ft | 256 kts | 214° |
| 2026-05-04 00:39 | -41.94150 | -73.43823 | 11972 ft | 258 kts | 214° |
| 2026-05-04 00:39 | -41.95797 | -73.44949 | 11635 ft | 259 kts | 213° |
| 2026-05-04 00:40 | -41.97420 | -73.46057 | 11303 ft | 260 kts | 213° |
| 2026-05-04 00:40 | -41.99016 | -73.47151 | 10977 ft | 256 kts | 214° |
| 2026-05-04 00:40 | -42.00594 | -73.48220 | 10644 ft | 248 kts | 213° |
| 2026-05-04 00:40 | -42.02102 | -73.49259 | 10316 ft | 243 kts | 214° |
| 2026-05-04 00:41 | -42.03594 | -73.50269 | 9982 ft | 241 kts | 213° |
| 2026-05-04 00:41 | -42.05093 | -73.51300 | 9598 ft | 242 kts | 212° |
| 2026-05-04 00:41 | -42.06573 | -73.52319 | 9254 ft | 241 kts | 213° |
| 2026-05-04 00:41 | -42.08078 | -73.53346 | 8871 ft | 242 kts | 213° |
| 2026-05-04 00:42 | -42.09574 | -73.54388 | 8489 ft | 244 kts | 210° |
| 2026-05-04 00:42 | -42.11283 | -73.54716 | 8139 ft | 252 kts | 189° |
| 2026-05-04 00:42 | -42.13024 | -73.54951 | 7912 ft | 247 kts | 190° |
| 2026-05-04 00:42 | -42.14722 | -73.55172 | 7703 ft | 244 kts | 191° |
| 2026-05-04 00:43 | -42.16402 | -73.55388 | 7494 ft | 242 kts | 191° |
| 2026-05-04 00:43 | -42.18063 | -73.55596 | 7286 ft | 241 kts | 190° |
| 2026-05-04 00:43 | -42.19701 | -73.55810 | 7081 ft | 241 kts | 191° |
| 2026-05-04 00:43 | -42.21368 | -73.56017 | 6872 ft | 240 kts | 190° |
| 2026-05-04 00:44 | -42.23045 | -73.56229 | 6661 ft | 241 kts | 190° |
| 2026-05-04 00:44 | -42.24716 | -73.56445 | 6452 ft | 242 kts | 189° |
| 2026-05-04 00:44 | -42.26383 | -73.56660 | 6244 ft | 242 kts | 189° |
| 2026-05-04 00:44 | -42.28041 | -73.56866 | 6038 ft | 241 kts | 190° |
| 2026-05-04 00:45 | -42.29710 | -73.57079 | 5830 ft | 241 kts | 190° |
| 2026-05-04 00:45 | -42.31380 | -73.57293 | 5619 ft | 241 kts | 190° |
| 2026-05-04 00:45 | -42.33052 | -73.57510 | 5409 ft | 240 kts | 190° |
| 2026-05-04 00:45 | -42.34736 | -73.57728 | 5198 ft | 240 kts | 190° |
| 2026-05-04 00:46 | -42.36436 | -73.57940 | 4984 ft | 239 kts | 191° |
| 2026-05-04 00:46 | -42.38075 | -73.58149 | 4781 ft | 239 kts | 190° |
| 2026-05-04 00:46 | -42.39733 | -73.58364 | 4575 ft | 239 kts | 190° |
| 2026-05-04 00:46 | -42.41394 | -73.58575 | 4367 ft | 239 kts | 190° |
| 2026-05-04 00:47 | -42.43059 | -73.58790 | 4159 ft | 239 kts | 190° |
| 2026-05-04 00:47 | -42.44712 | -73.59003 | 3953 ft | 239 kts | 190° |
| 2026-05-04 00:47 | -42.46365 | -73.59215 | 3747 ft | 238 kts | 189° |
| 2026-05-04 00:47 | -42.48031 | -73.59426 | 3540 ft | 238 kts | 190° |
| 2026-05-04 00:48 | -42.49663 | -73.59640 | 3335 ft | 238 kts | 190° |
| 2026-05-04 00:48 | -42.51303 | -73.59852 | 3128 ft | 235 kts | 190° |
| 2026-05-04 00:48 | -42.52780 | -73.60508 | 3008 ft | 215 kts | 226° |
| 2026-05-04 00:48 | -42.53502 | -73.62117 | 3011 ft | 194 kts | 254° |
| 2026-05-04 00:49 | -42.53682 | -73.63871 | 3015 ft | 184 kts | 270° |
| 2026-05-04 00:49 | -42.53670 | -73.65597 | 3017 ft | 184 kts | 275° |
| 2026-05-04 00:49 | -42.53595 | -73.67326 | 3021 ft | 185 kts | 276° |
| 2026-05-04 00:49 | -42.53496 | -73.69080 | 3011 ft | 187 kts | 277° |
| 2026-05-04 00:50 | -42.53394 | -73.70839 | 3011 ft | 188 kts | 276° |
| 2026-05-04 00:50 | -42.52985 | -73.72485 | 3002 ft | 188 kts | 310° |
| 2026-05-04 00:50 | -42.51865 | -73.73365 | 3006 ft | 198 kts | 346° |
| 2026-05-04 00:50 | -42.50464 | -73.73373 | 3014 ft | 201 kts | 356° |
| 2026-05-04 00:51 | -42.49068 | -73.73231 | 3024 ft | 202 kts | 358° |
| 2026-05-04 00:51 | -42.47680 | -73.73071 | 3022 ft | 200 kts | 359° |
| 2026-05-04 00:51 | -42.46279 | -73.72916 | 2815 ft | 201 kts | 359° |
| 2026-05-04 00:51 | -42.44913 | -73.72761 | 2568 ft | 192 kts | 359° |
| 2026-05-04 00:52 | -42.43633 | -73.72621 | 2331 ft | 181 kts | 359° |
| 2026-05-04 00:52 | -42.42459 | -73.72482 | 2096 ft | 150 kts | 358° |
| 2026-05-04 00:52 | -42.41526 | -73.72382 | 1926 ft | 119 kts | 359° |
| 2026-05-04 00:52 | -42.40770 | -73.72291 | 1763 ft | 100 kts | 356° |
| 2026-05-04 00:53 | -42.40115 | -73.72230 | 1658 ft | 91 kts | 355° |
| 2026-05-04 00:53 | -42.39494 | -73.72169 | 1518 ft | 89 kts | 355° |
| 2026-05-04 00:53 | -42.38874 | -73.72102 | 1388 ft | 89 kts | 356° |
| 2026-05-04 00:53 | -42.38255 | -73.72038 | 1266 ft | 87 kts | 359° |
| 2026-05-04 00:54 | -42.37665 | -73.71970 | 1139 ft | 86 kts | 358° |
| 2026-05-04 00:54 | -42.37065 | -73.71902 | 1025 ft | 86 kts | 357° |
| 2026-05-04 00:54 | -42.36476 | -73.71840 | 908 ft | 87 kts | 0° |
| 2026-05-04 00:54 | -42.35875 | -73.71773 | 797 ft | 86 kts | 3° |
| 2026-05-04 00:55 | -42.35283 | -73.71717 | 670 ft | 83 kts | 356° |
| 2026-05-04 00:55 | -42.34746 | -73.71651 | 568 ft | 65 kts | 357° |
| 2026-05-04 00:55 | -42.34454 | -73.71624 | 556 ft | 28 kts | 6° |
| 2026-05-04 00:55 | -42.34370 | -73.71611 | 554 ft | 9 kts | 208° |
| 2026-05-04 00:56 | -42.34447 | -73.71640 | 556 ft | 14 kts | 211° |
| 2026-05-04 00:56 | -42.34530 | -73.71745 | 558 ft | 18 kts | 231° |
| 2026-05-04 00:56 | -42.34617 | -73.71883 | 557 ft | 20 kts | 229° |
| 2026-05-04 00:56 | -42.34700 | -73.71989 | 557 ft | 15 kts | 194° |
| 2026-05-04 00:57 | -42.34784 | -73.71998 | 557 ft | 14 kts | 184° |
| 2026-05-04 00:57 | -42.34813 | -73.72049 | 557 ft | 8 kts | 278° |
| 2026-05-04 00:57 | -42.34815 | -73.72076 | 557 ft | 0 kts | 167° |
| 2026-05-04 00:57 | -42.34821 | -73.72076 | 557 ft | 2 kts | 178° |
| 2026-05-04 00:58 | -42.34823 | -73.72076 | 557 ft | 0 kts | 176° |
| 2026-05-04 00:58 | -42.34824 | -73.72075 | 557 ft | 0 kts | 140° |
| 2026-05-04 00:58 | -42.34825 | -73.72073 | 557 ft | 0 kts | 140° |